Time;durP1;ratioP1;P1;durP2;ratioP2;P2;SDS_P1;SDS_P2;PMS_P1;PMS_P2;Temp;Humidity;BMP_temperature;BMP_pressure;BME280_temperature;BME280_humidity;BME280_pressure;Samples;Min_cycle;Max_cycle;Signal;HPM_P1;HPM_P2
2021/07/01 00:01:02;;;;;;;25.65;17.58;;;15.80;99.90;;;;;;5038877;28;20214;-73
2021/07/01 00:03:30;;;;;;;30.08;19.90;;;15.80;99.90;;;;;;5046016;28;20236;-72
2021/07/01 00:05:57;;;;;;;26.23;17.65;;;15.80;99.90;;;;;;5046309;28;20213;-72
2021/07/01 00:08:25;;;;;;;28.85;19.55;;;15.80;99.90;;;;;;5049626;28;20208;-73
2021/07/01 00:10:54;;;;;;;28.45;19.15;;;15.80;99.90;;;;;;5052111;28;20222;-74
2021/07/01 00:13:21;;;;;;;24.10;17.98;;;15.70;99.90;;;;;;5043534;28;20196;-72
2021/07/01 00:15:48;;;;;;;30.58;20.40;;;15.70;99.90;;;;;;5052243;28;20203;-73
2021/07/01 00:18:16;;;;;;;27.45;20.98;;;15.70;99.90;;;;;;5051902;28;20222;-72
2021/07/01 00:20:43;;;;;;;30.63;18.27;;;15.70;99.90;;;;;;5052884;28;20202;-72
2021/07/01 00:23:10;;;;;;;21.65;17.50;;;15.70;99.90;;;;;;5051557;28;20557;-74
2021/07/01 00:25:37;;;;;;;27.17;17.10;;;15.60;99.90;;;;;;5048252;28;20207;-72
2021/07/01 00:28:06;;;;;;;28.23;20.98;;;15.70;99.90;;;;;;5045563;28;20204;-73
2021/07/01 00:30:33;;;;;;;25.42;18.80;;;15.60;99.90;;;;;;5050780;28;20223;-73
2021/07/01 00:33:00;;;;;;;25.77;19.20;;;15.60;99.90;;;;;;5047619;28;20203;-72
2021/07/01 00:35:28;;;;;;;23.58;18.75;;;15.60;99.90;;;;;;5044896;28;20215;-72
2021/07/01 00:37:55;;;;;;;30.27;19.55;;;15.60;99.90;;;;;;5049533;28;20203;-72
2021/07/01 00:40:22;;;;;;;27.15;18.55;;;15.60;99.90;;;;;;5042309;28;20212;-73
2021/07/01 00:42:49;;;;;;;24.90;17.85;;;15.60;99.90;;;;;;5045115;28;20204;-73
2021/07/01 00:45:19;;;;;;;21.33;17.98;;;15.60;99.90;;;;;;5052632;28;20224;-73
2021/07/01 00:47:46;;;;;;;26.98;19.55;;;15.60;99.90;;;;;;5043921;28;20207;-71
2021/07/01 00:50:15;;;;;;;25.75;17.00;;;15.70;99.90;;;;;;5044221;28;20235;-72
2021/07/01 00:52:42;;;;;;;25.63;16.88;;;15.60;99.90;;;;;;5051418;28;20208;-73
2021/07/01 00:55:11;;;;;;;27.60;19.80;;;15.70;99.90;;;;;;5043319;28;20234;-72
2021/07/01 00:57:39;;;;;;;28.20;18.50;;;15.60;99.90;;;;;;5049110;28;20206;-74
2021/07/01 01:00:17;;;;;;;24.83;18.48;;;15.50;99.90;;;;;;5042944;28;20214;-73
2021/07/01 01:02:45;;;;;;;20.83;17.25;;;15.50;99.90;;;;;;5048217;28;20572;-73
2021/07/01 01:05:13;;;;;;;22.45;17.17;;;15.50;99.90;;;;;;5041467;28;20223;-73
2021/07/01 01:07:40;;;;;;;27.75;17.63;;;15.60;99.90;;;;;;5043679;28;20321;-75
2021/07/01 01:10:08;;;;;;;24.58;17.52;;;15.60;99.90;;;;;;5047465;28;20704;-75
2021/07/01 01:12:36;;;;;;;29.80;18.00;;;15.60;99.90;;;;;;5055287;28;20219;-74
2021/07/01 01:15:04;;;;;;;30.10;17.52;;;15.50;99.90;;;;;;5051615;28;20309;-74
2021/07/01 01:17:31;;;;;;;24.52;17.75;;;15.50;99.90;;;;;;5055475;28;20196;-73
2021/07/01 01:20:02;;;;;;;25.38;18.02;;;15.50;99.90;;;;;;5052927;28;20203;-75
2021/07/01 01:22:31;;;;;;;30.45;18.52;;;15.50;99.90;;;;;;5055025;28;20199;-74
2021/07/01 01:24:58;;;;;;;27.23;19.27;;;15.50;99.90;;;;;;5055848;28;20223;-74
2021/07/01 01:27:25;;;;;;;24.08;17.67;;;15.50;99.90;;;;;;5055618;28;20234;-72
2021/07/01 01:29:53;;;;;;;31.88;19.25;;;15.50;99.90;;;;;;5055924;28;20211;-74
2021/07/01 01:32:21;;;;;;;31.77;19.98;;;15.50;99.90;;;;;;5049535;28;20200;-72
2021/07/01 01:34:48;;;;;;;27.45;21.10;;;15.50;99.90;;;;;;5056245;28;20310;-73
2021/07/01 01:37:15;;;;;;;30.08;19.10;;;15.50;99.90;;;;;;5056107;28;20203;-73
2021/07/01 01:39:48;;;;;;;35.85;22.13;;;15.50;99.90;;;;;;5050219;28;20203;-73
2021/07/01 01:42:15;;;;;;;28.65;21.25;;;15.40;99.90;;;;;;5054392;28;20243;-73
2021/07/01 01:44:43;;;;;;;31.20;22.33;;;15.40;99.90;;;;;;5055011;28;20224;-73
2021/07/01 01:47:17;;;;;;;34.60;23.42;;;15.40;99.90;;;;;;5038494;28;20207;-73
2021/07/01 01:49:49;;;;;;;48.70;23.63;;;15.30;99.90;;;;;;5041352;28;20215;-73
2021/07/01 01:52:17;;;;;;;31.17;21.67;;;15.20;99.90;;;;;;5057183;28;20261;-72
2021/07/01 01:54:44;;;;;;;31.67;20.65;;;15.20;99.90;;;;;;5054673;28;20215;-74
2021/07/01 01:57:13;;;;;;;36.83;24.75;;;15.20;99.90;;;;;;5053285;28;20214;-74
2021/07/01 01:59:40;;;;;;;43.05;24.38;;;15.20;99.90;;;;;;5041477;28;20198;-74
2021/07/01 02:02:08;;;;;;;39.90;25.00;;;15.20;99.90;;;;;;5049541;28;20592;-75
2021/07/01 02:04:35;;;;;;;41.47;27.45;;;15.20;99.90;;;;;;5053646;28;20322;-73
2021/07/01 02:07:02;;;;;;;49.70;25.08;;;15.10;99.90;;;;;;5050172;28;20198;-74
2021/07/01 02:09:29;;;;;;;37.55;26.02;;;15.10;99.90;;;;;;5042399;28;20590;-74
2021/07/01 02:11:56;;;;;;;39.83;25.52;;;15.00;99.90;;;;;;5050642;28;20214;-73
2021/07/01 02:14:25;;;;;;;47.75;24.42;;;15.00;99.90;;;;;;5051191;28;20231;-73
2021/07/01 02:16:52;;;;;;;39.53;25.02;;;15.10;99.90;;;;;;5053955;28;20306;-73
2021/07/01 02:19:19;;;;;;;38.00;22.98;;;15.10;99.90;;;;;;5047575;28;20210;-74
2021/07/01 02:21:47;;;;;;;41.00;24.90;;;15.10;99.90;;;;;;5052904;28;20200;-74
2021/07/01 02:24:14;;;;;;;35.40;24.17;;;15.10;99.90;;;;;;5051421;28;20689;-73
2021/07/01 02:26:41;;;;;;;40.03;24.38;;;15.10;99.90;;;;;;5050116;28;20253;-75
2021/07/01 02:29:08;;;;;;;40.85;24.00;;;15.10;99.90;;;;;;5041544;28;20210;-74
2021/07/01 02:31:37;;;;;;;45.13;23.77;;;15.20;99.90;;;;;;5050971;28;20199;-72
2021/07/01 02:34:05;;;;;;;44.25;24.13;;;15.20;99.90;;;;;;5052684;28;20582;-74
2021/07/01 02:36:32;;;;;;;33.45;21.15;;;15.10;99.90;;;;;;5042671;28;20207;-73
2021/07/01 02:38:59;;;;;;;34.83;22.98;;;15.10;99.90;;;;;;5045113;28;20204;-72
2021/07/01 02:41:26;;;;;;;32.80;23.50;;;15.10;99.90;;;;;;5046941;28;20203;-72
2021/07/01 02:43:54;;;;;;;35.47;24.02;;;15.10;99.90;;;;;;5044044;28;20226;-74
2021/07/01 02:46:21;;;;;;;43.65;25.08;;;15.10;99.90;;;;;;5044995;28;20210;-72
2021/07/01 02:48:49;;;;;;;42.10;23.95;;;15.10;99.90;;;;;;5041411;28;20207;-72
2021/07/01 02:51:16;;;;;;;31.08;21.67;;;15.10;99.90;;;;;;5051578;28;20241;-72
2021/07/01 02:53:43;;;;;;;42.33;24.30;;;15.20;99.90;;;;;;5048605;28;20216;-72
2021/07/01 02:56:11;;;;;;;37.13;26.67;;;15.10;99.90;;;;;;5041463;28;20202;-75
2021/07/01 02:58:38;;;;;;;49.40;25.55;;;15.10;99.90;;;;;;5047835;28;20657;-75
2021/07/01 03:01:05;;;;;;;34.50;25.55;;;15.10;99.90;;;;;;5050450;28;20647;-72
2021/07/01 03:03:32;;;;;;;39.53;26.70;;;15.10;99.90;;;;;;5045895;28;20219;-75
2021/07/01 03:06:01;;;;;;;44.42;26.35;;;15.10;99.90;;;;;;5046846;28;20216;-73
2021/07/01 03:08:28;;;;;;;47.85;27.65;;;15.10;99.90;;;;;;5049204;28;20242;-74
2021/07/01 03:10:56;;;;;;;41.88;27.10;;;15.00;99.90;;;;;;5053557;28;20254;-74
2021/07/01 03:13:23;;;;;;;51.22;28.83;;;15.00;99.90;;;;;;5039588;28;20216;-72
2021/07/01 03:15:50;;;;;;;44.67;28.55;;;15.00;99.90;;;;;;5042416;28;20207;-75
2021/07/01 03:18:17;;;;;;;45.00;28.15;;;15.00;99.90;;;;;;5038597;28;20880;-73
2021/07/01 03:20:44;;;;;;;55.13;29.13;;;15.00;99.90;;;;;;5048456;28;20627;-74
2021/07/01 03:23:12;;;;;;;41.03;28.58;;;15.00;99.90;;;;;;5053345;28;20207;-74
2021/07/01 03:25:40;;;;;;;50.53;28.70;;;15.10;99.90;;;;;;5045451;28;20200;-74
2021/07/01 03:28:07;;;;;;;43.88;25.77;;;15.10;99.90;;;;;;5050746;28;20211;-72
2021/07/01 03:30:34;;;;;;;32.97;23.80;;;15.00;99.90;;;;;;5045123;28;20227;-72
2021/07/01 03:33:01;;;;;;;39.75;27.65;;;15.00;99.90;;;;;;5050163;28;20218;-73
2021/07/01 03:35:28;;;;;;;35.78;26.27;;;15.00;99.90;;;;;;5044719;28;20680;-73
2021/07/01 03:37:55;;;;;;;39.47;27.35;;;15.00;99.90;;;;;;5042840;28;20200;-74
2021/07/01 03:40:24;;;;;;;46.08;27.73;;;15.00;99.90;;;;;;5047753;28;20196;-73
2021/07/01 03:42:51;;;;;;;35.58;24.30;;;15.00;99.90;;;;;;5040549;28;20208;-74
2021/07/01 03:45:18;;;;;;;34.85;26.48;;;15.00;99.90;;;;;;5045805;28;20231;-74
2021/07/01 03:47:45;;;;;;;37.10;27.50;;;15.10;99.90;;;;;;5051970;28;20215;-74
2021/07/01 03:50:13;;;;;;;36.00;25.73;;;15.10;99.90;;;;;;5045891;28;20219;-73
2021/07/01 03:52:41;;;;;;;36.55;26.60;;;15.10;99.90;;;;;;5047153;28;20196;-74
2021/07/01 03:55:09;;;;;;;48.40;26.25;;;15.10;99.90;;;;;;5042284;28;20232;-74
2021/07/01 03:57:38;;;;;;;29.95;22.17;;;15.10;99.90;;;;;;5045187;28;20200;-75
2021/07/01 04:00:07;;;;;;;32.25;22.73;;;15.10;99.90;;;;;;5044506;28;20207;-73
2021/07/01 04:02:35;;;;;;;31.52;23.88;;;15.10;99.90;;;;;;5047619;28;20226;-73
2021/07/01 04:05:02;;;;;;;31.90;25.00;;;15.10;99.90;;;;;;5039994;28;20219;-75
2021/07/01 04:07:29;;;;;;;34.53;23.33;;;15.10;99.90;;;;;;5052039;28;20676;-73
2021/07/01 04:10:00;;;;;;;40.83;24.10;;;15.10;99.90;;;;;;5049368;28;20234;-72
2021/07/01 04:12:27;;;;;;;36.15;25.38;;;15.10;99.90;;;;;;5041769;28;20212;-72
2021/07/01 04:14:56;;;;;;;35.00;25.83;;;15.10;99.90;;;;;;5043875;28;20584;-73
2021/07/01 04:17:23;;;;;;;39.42;26.95;;;15.10;99.90;;;;;;5041875;28;20200;-74
2021/07/01 04:19:50;;;;;;;30.02;21.75;;;15.10;99.90;;;;;;5044972;28;20654;-77
2021/07/01 04:22:17;;;;;;;25.20;20.00;;;15.20;99.90;;;;;;5052313;28;20204;-74
2021/07/01 04:24:45;;;;;;;32.85;23.10;;;15.20;99.90;;;;;;5044553;28;20219;-74
2021/07/01 04:27:12;;;;;;;36.22;21.55;;;15.20;99.90;;;;;;5050011;28;20214;-74
2021/07/01 04:29:39;;;;;;;30.45;20.92;;;15.30;99.90;;;;;;5044444;28;20211;-72
2021/07/01 04:32:08;;;;;;;25.45;20.80;;;15.30;99.90;;;;;;5041643;28;20764;-73
2021/07/01 04:34:35;;;;;;;30.45;20.40;;;15.30;99.90;;;;;;5049649;28;20453;-73
2021/07/01 04:37:03;;;;;;;27.60;20.40;;;15.30;99.90;;;;;;5051510;28;20210;-73
2021/07/01 04:39:30;;;;;;;27.83;21.50;;;15.30;99.90;;;;;;5049489;28;20223;-73
2021/07/01 04:41:58;;;;;;;24.77;19.77;;;15.30;99.90;;;;;;5046266;28;20203;-73
2021/07/01 04:44:25;;;;;;;28.95;19.67;;;15.30;99.90;;;;;;5051150;28;20738;-75
2021/07/01 04:46:52;;;;;;;26.88;19.98;;;15.30;99.90;;;;;;5045469;28;20196;-73
2021/07/01 04:49:20;;;;;;;29.90;19.92;;;15.30;99.90;;;;;;5040237;28;20640;-73
2021/07/01 04:51:48;;;;;;;24.75;18.45;;;15.30;99.90;;;;;;5043115;28;20227;-72
2021/07/01 04:54:15;;;;;;;23.02;15.80;;;15.30;99.90;;;;;;5048560;28;20236;-73
2021/07/01 04:56:45;;;;;;;21.58;16.23;;;15.30;99.90;;;;;;5043165;28;20204;-74
2021/07/01 04:59:13;;;;;;;20.02;15.82;;;15.30;99.90;;;;;;5050133;28;20199;-73
2021/07/01 05:01:40;;;;;;;21.52;16.23;;;15.30;99.90;;;;;;5052210;28;20728;-74
2021/07/01 05:04:09;;;;;;;15.68;13.90;;;15.30;99.90;;;;;;5050847;28;20719;-73
2021/07/01 05:06:38;;;;;;;18.83;14.20;;;15.40;99.90;;;;;;5050396;28;20207;-73
2021/07/01 05:09:06;;;;;;;23.45;13.25;;;15.40;99.90;;;;;;5051073;28;20200;-73
2021/07/01 05:11:34;;;;;;;14.73;12.30;;;15.30;99.90;;;;;;5043657;28;20222;-72
2021/07/01 05:14:02;;;;;;;20.52;11.68;;;15.30;99.90;;;;;;5050762;28;20229;-72
2021/07/01 05:16:29;;;;;;;14.10;11.38;;;15.30;99.90;;;;;;5040860;28;20199;-73
2021/07/01 05:18:57;;;;;;;11.80;10.60;;;15.30;99.90;;;;;;5047233;28;20575;-73
2021/07/01 05:21:24;;;;;;;14.45;12.88;;;15.30;99.90;;;;;;5047404;28;20322;-72
2021/07/01 05:23:53;;;;;;;13.80;10.48;;;15.40;99.90;;;;;;5043090;28;20227;-73
2021/07/01 05:26:21;;;;;;;15.73;10.90;;;15.40;99.90;;;;;;5043380;28;20206;-72
2021/07/01 05:28:48;;;;;;;12.05;10.65;;;15.40;99.90;;;;;;5051151;28;20239;-75
2021/07/01 05:31:15;;;;;;;12.10;10.80;;;15.50;99.90;;;;;;5048497;28;20226;-75
2021/07/01 05:33:42;;;;;;;12.55;10.52;;;15.50;99.90;;;;;;5050477;28;20253;-73
2021/07/01 05:36:10;;;;;;;15.13;11.48;;;15.50;99.90;;;;;;5048720;28;20199;-76
2021/07/01 05:38:39;;;;;;;14.07;11.20;;;15.50;99.90;;;;;;5045379;28;20243;-75
2021/07/01 05:41:07;;;;;;;13.43;11.32;;;15.50;99.90;;;;;;5050012;28;20208;-75
2021/07/01 05:43:35;;;;;;;13.48;9.15;;;15.60;99.90;;;;;;5048600;28;20229;-74
2021/07/01 05:46:02;;;;;;;11.30;9.45;;;15.60;99.90;;;;;;5049088;28;20191;-74
2021/07/01 05:48:30;;;;;;;12.48;10.93;;;15.60;99.90;;;;;;5041877;28;20586;-74
2021/07/01 05:51:02;;;;;;;11.63;8.55;;;15.70;99.90;;;;;;5050372;28;20231;-73
2021/07/01 05:53:32;;;;;;;10.27;8.35;;;15.70;99.90;;;;;;5044293;28;20252;-74
2021/07/01 05:55:59;;;;;;;13.15;8.05;;;15.80;99.90;;;;;;5052649;28;20246;-73
2021/07/01 05:58:28;;;;;;;11.13;7.00;;;15.70;99.90;;;;;;5042971;28;20200;-72
2021/07/01 06:00:56;;;;;;;9.65;8.65;;;15.80;99.90;;;;;;5047955;28;20236;-76
2021/07/01 06:03:23;;;;;;;11.05;8.15;;;15.70;99.90;;;;;;5053339;28;20191;-71
2021/07/01 06:05:56;;;;;;;8.55;7.75;;;15.80;99.90;;;;;;5047958;28;20200;-75
2021/07/01 06:08:23;;;;;;;9.15;8.13;;;15.80;99.90;;;;;;5047316;28;20555;-74
2021/07/01 06:10:52;;;;;;;8.60;7.18;;;15.90;99.90;;;;;;5053204;28;20273;-74
2021/07/01 06:13:23;;;;;;;7.00;6.22;;;15.90;99.90;;;;;;5050360;28;20291;-75
2021/07/01 06:15:53;;;;;;;9.52;7.28;;;15.90;99.90;;;;;;5052052;28;20230;-72
2021/07/01 06:18:21;;;;;;;10.30;7.53;;;15.90;99.90;;;;;;5051285;28;20204;-74
2021/07/01 06:20:49;;;;;;;9.77;7.10;;;16.00;99.90;;;;;;5051333;28;20204;-75
2021/07/01 06:23:17;;;;;;;8.48;7.45;;;16.00;99.90;;;;;;5051904;28;20210;-73
2021/07/01 06:25:44;;;;;;;7.80;7.07;;;16.00;99.90;;;;;;5046633;28;20226;-72
2021/07/01 06:28:14;;;;;;;7.07;6.07;;;16.00;99.90;;;;;;5049909;28;20250;-74
2021/07/01 06:30:45;;;;;;;7.00;6.00;;;16.00;99.90;;;;;;5050538;28;20220;-73
2021/07/01 06:33:14;;;;;;;6.40;5.80;;;16.20;99.90;;;;;;5043616;28;20558;-74
2021/07/01 06:35:49;;;;;;;7.45;5.55;;;16.30;99.90;;;;;;5053682;28;20246;-76
2021/07/01 06:38:22;;;;;;;6.25;5.05;;;16.40;99.90;;;;;;5046865;28;20675;-75
2021/07/01 06:40:52;;;;;;;7.53;5.60;;;16.60;99.90;;;;;;5046245;28;20197;-75
2021/07/01 06:43:22;;;;;;;18.25;5.93;;;16.60;99.90;;;;;;5043868;28;20199;-73
2021/07/01 06:45:50;;;;;;;9.48;5.50;;;16.70;99.90;;;;;;5046747;28;20204;-74
2021/07/01 06:48:23;;;;;;;7.15;5.60;;;16.60;99.90;;;;;;5053511;28;20225;-74
2021/07/01 06:50:52;;;;;;;7.50;4.63;;;16.70;99.90;;;;;;5043941;28;20688;-75
2021/07/01 06:53:22;;;;;;;6.93;5.47;;;16.70;99.90;;;;;;5041174;28;20201;-74
2021/07/01 06:55:52;;;;;;;6.07;4.82;;;16.80;99.90;;;;;;5052609;28;20202;-75
2021/07/01 06:58:20;;;;;;;6.38;5.45;;;16.80;99.90;;;;;;5045524;28;20216;-77
2021/07/01 07:00:49;;;;;;;5.20;4.60;;;16.80;99.90;;;;;;5051674;28;20192;-74
2021/07/01 07:03:18;;;;;;;4.82;3.95;;;16.90;99.90;;;;;;5049543;28;20201;-73
2021/07/01 07:05:46;;;;;;;5.18;4.68;;;16.90;99.90;;;;;;5050882;28;20662;-76
2021/07/01 07:08:14;;;;;;;5.25;4.75;;;16.90;99.90;;;;;;5048423;28;20206;-75
2021/07/01 07:10:43;;;;;;;5.75;4.88;;;16.90;99.90;;;;;;5051058;28;20284;-74
2021/07/01 07:13:11;;;;;;;6.93;4.75;;;17.00;99.90;;;;;;5053122;28;20551;-74
2021/07/01 07:15:39;;;;;;;5.40;4.90;;;17.00;99.90;;;;;;5052658;28;20208;-75
2021/07/01 07:18:14;;;;;;;14.07;6.35;;;17.00;99.90;;;;;;5051880;28;20208;-75
2021/07/01 07:20:45;;;;;;;13.63;6.65;;;17.00;99.90;;;;;;5048026;28;20282;-74
2021/07/01 07:23:19;;;;;;;11.05;6.00;;;17.00;99.90;;;;;;5052660;28;20210;-74
2021/07/01 07:25:47;;;;;;;6.57;5.95;;;17.00;99.90;;;;;;5053354;28;20207;-73
2021/07/01 07:28:20;;;;;;;7.75;5.15;;;17.10;99.90;;;;;;5048362;28;20689;-75
2021/07/01 07:30:49;;;;;;;5.78;4.65;;;17.10;99.90;;;;;;5053501;28;20202;-73
2021/07/01 07:33:18;;;;;;;5.70;5.20;;;17.20;99.90;;;;;;5045215;28;20207;-74
2021/07/01 07:35:49;;;;;;;5.35;3.83;;;17.30;99.90;;;;;;5044209;28;20217;-73
2021/07/01 07:38:19;;;;;;;5.00;4.60;;;17.30;99.90;;;;;;5050354;28;20221;-74
2021/07/01 07:40:49;;;;;;;6.78;4.93;;;17.50;99.90;;;;;;5052148;28;20248;-74
2021/07/01 07:43:18;;;;;;;6.85;5.55;;;17.50;99.90;;;;;;5043546;28;20653;-73
2021/07/01 07:45:46;;;;;;;6.22;5.15;;;17.50;99.90;;;;;;5052951;28;20207;-74
2021/07/01 07:48:13;;;;;;;5.13;4.60;;;17.50;99.90;;;;;;5038220;28;20217;-74
2021/07/01 07:50:41;;;;;;;6.60;4.93;;;17.50;99.90;;;;;;5052380;28;20210;-73
2021/07/01 07:53:14;;;;;;;6.20;5.68;;;17.50;99.90;;;;;;5037376;28;20238;-76
2021/07/01 07:55:45;;;;;;;6.97;5.05;;;17.50;99.90;;;;;;5041261;28;20198;-74
2021/07/01 07:58:14;;;;;;;5.03;4.60;;;17.60;99.90;;;;;;5051459;28;20196;-75
2021/07/01 08:00:42;;;;;;;7.60;6.43;;;17.70;99.90;;;;;;5043610;28;20480;-76
2021/07/01 08:03:11;;;;;;;7.90;5.93;;;17.80;99.90;;;;;;5044185;28;20457;-74
2021/07/01 08:05:40;;;;;;;9.43;7.90;;;17.90;99.90;;;;;;5051691;28;20450;-74
2021/07/01 08:08:15;;;;;;;9.63;7.47;;;17.90;99.90;;;;;;5050987;28;20459;-74
2021/07/01 08:10:43;;;;;;;6.03;5.43;;;18.00;99.90;;;;;;5041012;28;20503;-74
2021/07/01 08:13:11;;;;;;;9.10;6.22;;;18.00;99.90;;;;;;5051554;28;20460;-74
2021/07/01 08:15:40;;;;;;;6.03;5.40;;;18.10;99.90;;;;;;5041551;28;20199;-73
2021/07/01 08:18:09;;;;;;;10.03;6.53;;;18.20;99.90;;;;;;5048248;28;20445;-75
2021/07/01 08:20:36;;;;;;;7.77;6.33;;;18.30;99.90;;;;;;5051633;28;20448;-75
2021/07/01 08:23:04;;;;;;;12.13;6.83;;;18.50;99.90;;;;;;5050307;28;20441;-76
2021/07/01 08:25:32;;;;;;;9.20;5.33;;;18.60;99.90;;;;;;5051893;28;20827;-73
2021/07/01 08:28:00;;;;;;;7.30;6.60;;;18.70;99.90;;;;;;5049200;28;20985;-74
2021/07/01 08:30:28;;;;;;;7.00;5.80;;;18.80;99.90;;;;;;5047838;28;20791;-72
2021/07/01 08:32:57;;;;;;;9.30;7.10;;;18.90;99.90;;;;;;5049002;28;20511;-73
2021/07/01 08:35:26;;;;;;;9.93;8.07;;;19.00;99.90;;;;;;5049306;28;20533;-75
2021/07/01 08:37:57;;;;;;;6.33;5.70;;;19.20;99.90;;;;;;5052289;28;20445;-75
2021/07/01 08:40:34;;;;;;;10.83;8.70;;;19.30;99.90;;;;;;5048747;28;20453;-75
2021/07/01 08:43:02;;;;;;;8.40;7.50;;;19.40;99.90;;;;;;5043047;28;20469;-72
2021/07/01 08:45:50;;;;;;;10.07;8.37;;;19.40;99.90;;;;;;5044808;28;20494;-73
2021/07/01 08:48:23;;;;;;;10.57;8.77;;;19.50;99.90;;;;;;5037450;28;20483;-75
2021/07/01 08:50:56;;;;;;;11.20;9.37;;;19.50;99.90;;;;;;5047125;28;20447;-74
2021/07/01 08:53:44;;;;;;;13.87;9.73;;;19.60;99.90;;;;;;5036871;28;20525;-74
2021/07/01 08:56:15;;;;;;;12.50;11.20;;;19.60;99.90;;;;;;5039459;28;20444;-75
2021/07/01 08:58:48;;;;;;;11.00;9.90;;;19.80;99.90;;;;;;5046003;28;20443;-73
2021/07/01 09:01:18;;;;;;;13.47;12.20;;;19.90;99.90;;;;;;5048855;28;20508;-74
2021/07/01 09:03:48;;;;;;;12.07;10.87;;;20.00;99.90;;;;;;5039822;28;20458;-75
2021/07/01 09:06:23;;;;;;;16.87;15.17;;;20.10;99.90;;;;;;5044621;28;20486;-72
2021/07/01 09:08:52;;;;;;;15.40;13.63;;;20.10;99.90;;;;;;5045670;28;20988;-72
2021/07/01 09:11:21;;;;;;;16.57;14.77;;;20.10;99.90;;;;;;5047331;28;20470;-74
2021/07/01 09:13:50;;;;;;;13.97;12.67;;;20.10;99.90;;;;;;5036810;28;20473;-76
2021/07/01 09:16:19;;;;;;;16.90;14.47;;;20.20;99.90;;;;;;5048217;28;20451;-75
2021/07/01 09:18:48;;;;;;;16.00;13.40;;;20.20;99.90;;;;;;5047303;28;20450;-75
2021/07/01 09:21:16;;;;;;;17.83;14.73;;;20.20;99.90;;;;;;5049365;28;20539;-72
2021/07/01 09:23:47;;;;;;;16.37;12.87;;;20.10;99.90;;;;;;5045545;28;20468;-74
2021/07/01 09:26:22;;;;;;;15.10;12.67;;;20.20;99.90;;;;;;5042128;28;20800;-72
2021/07/01 09:28:50;;;;;;;18.17;11.60;;;20.30;99.90;;;;;;5047733;28;20501;-73
2021/07/01 09:31:20;;;;;;;13.07;10.60;;;20.30;99.90;;;;;;5040824;28;20447;-74
2021/07/01 09:33:48;;;;;;;12.47;10.90;;;20.20;99.90;;;;;;5052700;28;20841;-72
2021/07/01 09:36:16;;;;;;;14.00;12.57;;;20.20;99.90;;;;;;5050874;28;20441;-74
2021/07/01 09:38:45;;;;;;;13.63;11.43;;;20.20;99.90;;;;;;5052238;28;20442;-74
2021/07/01 09:41:14;;;;;;;13.13;11.77;;;20.10;99.90;;;;;;5050602;28;20453;-75
2021/07/01 09:43:47;;;;;;;12.17;10.30;;;20.10;99.90;;;;;;5044853;28;20493;-74
2021/07/01 09:46:18;;;;;;;12.27;10.80;;;20.20;99.90;;;;;;5035926;28;20450;-74
2021/07/01 09:48:47;;;;;;;12.27;11.00;;;20.20;99.90;;;;;;5049635;28;20539;-75
2021/07/01 09:51:16;;;;;;;14.27;12.90;;;20.30;99.90;;;;;;5048292;28;20457;-74
2021/07/01 09:53:48;;;;;;;11.73;10.57;;;20.30;99.90;;;;;;5048703;28;20504;-73
2021/07/01 09:56:24;;;;;;;11.67;10.47;;;20.30;99.90;;;;;;5040784;28;20446;-74
2021/07/01 09:59:00;;;;;;;11.90;10.03;;;20.40;99.90;;;;;;5046927;28;20837;-74
2021/07/01 10:01:31;;;;;;;13.93;12.40;;;20.40;99.90;;;;;;5049991;28;20442;-76
2021/07/01 10:04:02;;;;;;;12.40;11.10;;;20.40;99.90;;;;;;5052872;28;20535;-74
2021/07/01 10:06:29;;;;;;;11.93;10.80;;;20.40;99.90;;;;;;5049743;28;20450;-76
2021/07/01 10:08:57;;;;;;;10.90;9.90;;;20.30;99.90;;;;;;5051044;28;20465;-74
2021/07/01 10:11:36;;;;;;;9.90;9.00;;;20.30;99.90;;;;;;5050092;28;20448;-76
2021/07/01 10:14:06;;;;;;;10.40;9.40;;;20.40;99.90;;;;;;5051642;28;20902;-73
2021/07/01 10:16:37;;;;;;;12.50;10.93;;;20.50;99.90;;;;;;5053487;28;20460;-76
2021/07/01 10:19:07;;;;;;;11.57;9.70;;;20.60;99.90;;;;;;5053619;28;20446;-75
2021/07/01 10:21:36;;;;;;;12.10;11.00;;;20.70;99.90;;;;;;5053093;28;20447;-75
2021/07/01 10:24:12;;;;;;;12.77;11.60;;;20.80;99.90;;;;;;5053617;28;20467;-74
2021/07/01 10:26:43;;;;;;;12.47;11.23;;;20.80;99.90;;;;;;5046485;28;20469;-76
2021/07/01 10:29:13;;;;;;;14.90;13.30;;;20.80;99.90;;;;;;5052396;28;20450;-75
2021/07/01 10:31:54;;;;;;;13.07;11.77;;;20.70;99.90;;;;;;5043433;28;20508;-73
2021/07/01 10:34:22;;;;;;;13.00;11.80;;;20.70;99.90;;;;;;5052832;28;20836;-74
2021/07/01 10:37:14;;;;;;;15.13;13.60;;;20.70;99.90;;;;;;5044135;28;20450;-74
2021/07/01 10:39:41;;;;;;;14.93;13.53;;;20.90;99.90;;;;;;5043501;28;20534;-74
2021/07/01 10:42:08;;;;;;;12.10;11.03;;;21.00;99.90;;;;;;5053359;28;20464;-76
2021/07/01 10:44:37;;;;;;;12.57;11.47;;;21.10;99.90;;;;;;5046518;28;20459;-74
2021/07/01 10:47:24;;;;;;;14.00;12.57;;;21.30;99.90;;;;;;5049066;28;20464;-74
2021/07/01 10:49:51;;;;;;;14.83;13.43;;;21.40;99.90;;;;;;5049853;28;20536;-74
2021/07/01 10:52:20;;;;;;;12.17;10.93;;;21.50;99.90;;;;;;5053373;28;20563;-73
2021/07/01 10:54:57;;;;;;;12.73;11.40;;;21.50;99.90;;;;;;5049120;28;20815;-73
2021/07/01 10:57:29;;;;;;;12.33;11.23;;;21.70;99.90;;;;;;5053729;28;20453;-74
2021/07/01 10:59:59;;;;;;;12.00;10.40;;;21.80;99.90;;;;;;5054226;28;20812;-74
2021/07/01 11:02:27;;;;;;;12.73;11.43;;;21.80;99.90;;;;;;5052735;28;20444;-75
2021/07/01 11:04:58;;;;;;;12.43;11.17;;;21.90;99.90;;;;;;5053701;28;20484;-74
2021/07/01 11:07:26;;;;;;;26.60;14.23;;;21.90;99.90;;;;;;5046093;28;20449;-76
2021/07/01 11:09:56;;;;;;;16.43;12.73;;;22.00;99.90;;;;;;5043208;28;20441;-72
2021/07/01 11:12:25;;;;;;;14.30;12.30;;;22.10;99.90;;;;;;5053555;28;20489;-76
2021/07/01 11:14:55;;;;;;;10.43;9.43;;;22.20;99.90;;;;;;5053282;28;20473;-74
2021/07/01 11:17:35;;;;;;;11.90;10.70;;;22.40;99.90;;;;;;5052620;28;20525;-73
2021/07/01 11:20:15;;;;;;;12.37;10.20;;;22.60;99.90;;;;;;5052849;28;20464;-74
2021/07/01 11:22:50;;;;;;;12.00;10.90;;;22.80;99.90;;;;;;5051080;28;20533;-75
2021/07/01 11:25:28;;;;;;;11.37;10.27;;;22.90;99.90;;;;;;5041436;28;20482;-74
2021/07/01 11:28:17;;;;;;;14.10;10.10;;;23.10;99.90;;;;;;5049717;28;20461;-74
2021/07/01 11:30:48;;;;;;;11.30;10.27;;;23.10;99.90;;;;;;5046157;28;20540;-73
2021/07/01 11:33:19;;;;;;;12.80;9.83;;;23.20;99.90;;;;;;5054304;28;20512;-75
2021/07/01 11:35:47;;;;;;;8.83;8.00;;;23.20;99.90;;;;;;5041748;28;20454;-73
2021/07/01 11:38:31;;;;;;;8.57;7.77;;;23.30;99.90;;;;;;5047630;28;20814;-74
2021/07/01 11:41:03;;;;;;;9.70;8.00;;;23.50;99.90;;;;;;5045386;28;20443;-75
2021/07/01 11:43:34;;;;;;;9.87;8.87;;;23.60;99.90;;;;;;5052411;28;20502;-72
2021/07/01 11:46:02;;;;;;;9.10;8.27;;;23.60;99.90;;;;;;5040164;28;20465;-74
2021/07/01 11:48:32;;;;;;;12.37;9.10;;;23.70;99.90;;;;;;5034020;28;20466;-74
2021/07/01 11:51:01;;;;;;;10.50;9.50;;;23.70;99.90;;;;;;5047209;28;20442;-73
2021/07/01 11:53:29;;;;;;;9.73;8.83;;;23.80;99.90;;;;;;5048301;28;20495;-73
2021/07/01 11:56:01;;;;;;;10.03;9.13;;;23.90;99.90;;;;;;5048983;28;20457;-73
2021/07/01 11:58:31;;;;;;;9.87;8.60;;;23.90;99.90;;;;;;5052680;28;20528;-74
2021/07/01 12:01:00;;;;;;;9.80;9.00;;;23.80;99.90;;;;;;5048902;28;20831;-74
2021/07/01 12:03:30;;;;;;;10.73;9.47;;;23.60;99.90;;;;;;5047714;28;20473;-72
2021/07/01 12:06:01;;;;;;;9.33;8.53;;;23.60;99.90;;;;;;5049420;28;20952;-73
2021/07/01 12:08:28;;;;;;;8.57;7.70;;;23.60;99.90;;;;;;5050824;28;20477;-74
2021/07/01 12:11:03;;;;;;;8.27;7.47;;;23.80;99.90;;;;;;5050647;28;20446;-73
2021/07/01 12:13:44;;;;;;;8.00;7.20;;;24.00;99.90;;;;;;5042828;28;20513;-72
2021/07/01 12:16:14;;;;;;;10.93;7.80;;;24.30;99.90;;;;;;5051445;28;20515;-72
2021/07/01 12:18:55;;;;;;;7.77;6.97;;;24.40;99.90;;;;;;5048578;28;20456;-72
2021/07/01 12:21:27;;;;;;;8.37;7.57;;;24.60;99.90;;;;;;5042654;28;20454;-72
2021/07/01 12:23:55;;;;;;;7.97;6.73;;;24.80;99.90;;;;;;5043893;28;20471;-73
2021/07/01 12:26:37;;;;;;;7.17;6.63;;;24.90;99.90;;;;;;5048434;28;20451;-73
2021/07/01 12:29:07;;;;;;;7.70;6.90;;;25.10;99.90;;;;;;5051926;28;20515;-72
2021/07/01 12:31:36;;;;;;;8.70;7.50;;;25.20;99.90;;;;;;5050153;28;20804;-73
2021/07/01 12:34:05;;;;;;;7.40;6.37;;;25.40;99.90;;;;;;5051459;28;20551;-73
2021/07/01 12:36:35;;;;;;;6.90;5.83;;;25.50;99.90;;;;;;5048672;28;20825;-73
2021/07/01 12:39:25;;;;;;;8.83;6.57;;;25.40;99.90;;;;;;5047269;28;20450;-73
2021/07/01 12:41:58;;;;;;;8.73;6.77;;;25.40;99.90;;;;;;5048412;28;20970;-71
2021/07/01 12:44:33;;;;;;;10.50;6.17;;;25.30;99.90;;;;;;5041430;28;20471;-73